Time;durP1;ratioP1;P1;durP2;ratioP2;P2;SDS_P1;SDS_P2;PMS_P1;PMS_P2;Temp;Humidity;BMP_temperature;BMP_pressure;BME280_temperature;BME280_humidity;BME280_pressure;Samples;Min_cycle;Max_cycle;Signal;HPM_P1;HPM_P2
2022/04/27 00:01:06;;;;;;;6.63;5.95;;;16.00;91.50;;;;;;6371104;22;20033;-78
2022/04/27 00:03:32;;;;;;;8.77;7.20;;;16.00;91.60;;;;;;6370193;22;19999;-78
2022/04/27 00:05:58;;;;;;;11.30;7.00;;;16.00;91.70;;;;;;6370491;22;20420;-78
2022/04/27 00:08:23;;;;;;;11.05;7.57;;;16.00;91.70;;;;;;6370726;22;20374;-78
2022/04/27 00:10:49;;;;;;;9.48;7.38;;;16.00;91.80;;;;;;6342576;22;20412;-78
2022/04/27 00:13:16;;;;;;;8.25;7.28;;;16.00;92.00;;;;;;6370810;22;20073;-78
2022/04/27 00:15:41;;;;;;;9.73;6.90;;;16.00;91.80;;;;;;6370799;22;19994;-79
2022/04/27 00:18:07;;;;;;;8.68;6.35;;;15.90;91.80;;;;;;6370768;22;20002;-79
2022/04/27 00:20:33;;;;;;;8.25;6.72;;;15.90;91.70;;;;;;6343606;22;20012;-78
2022/04/27 00:22:58;;;;;;;7.57;6.78;;;16.00;91.80;;;;;;6370438;22;20420;-80
2022/04/27 00:25:24;;;;;;;7.43;6.60;;;15.90;91.90;;;;;;6342363;22;20053;-77
2022/04/27 00:27:50;;;;;;;7.68;6.00;;;16.00;91.70;;;;;;6342235;22;19998;-78
2022/04/27 00:30:15;;;;;;;8.05;7.10;;;15.90;91.60;;;;;;6370417;22;19998;-77
2022/04/27 00:32:41;;;;;;;7.88;6.15;;;16.00;91.60;;;;;;6370055;22;20026;-79
2022/04/27 00:35:08;;;;;;;7.80;7.00;;;16.00;91.60;;;;;;6370617;22;20002;-79
2022/04/27 00:37:34;;;;;;;9.68;8.43;;;15.90;91.80;;;;;;6342021;22;20076;-78
2022/04/27 00:40:00;;;;;;;7.60;6.88;;;15.80;92.00;;;;;;6369832;22;20306;-79
2022/04/27 00:42:26;;;;;;;7.80;7.00;;;15.80;92.10;;;;;;6370441;22;20001;-78
2022/04/27 00:44:52;;;;;;;9.77;8.50;;;15.80;92.00;;;;;;6370575;22;19994;-78
2022/04/27 00:47:19;;;;;;;10.13;8.30;;;15.70;92.00;;;;;;6369425;22;20460;-77
2022/04/27 00:49:49;;;;;;;9.43;6.68;;;15.60;92.10;;;;;;6370278;22;20373;-77
2022/04/27 00:52:16;;;;;;;10.65;8.60;;;15.60;92.10;;;;;;6369488;22;20003;-80
2022/04/27 00:54:43;;;;;;;7.80;7.00;;;15.60;92.20;;;;;;6370310;22;20002;-80
2022/04/27 00:57:09;;;;;;;9.90;8.55;;;15.60;92.30;;;;;;6369851;22;19998;-80
2022/04/27 00:59:36;;;;;;;7.63;6.82;;;15.60;92.20;;;;;;6371142;22;20456;-81
2022/04/27 01:02:04;;;;;;;6.55;5.85;;;15.60;92.10;;;;;;6370651;22;20359;-79
2022/04/27 01:04:32;;;;;;;7.72;6.38;;;15.60;92.10;;;;;;6370098;22;19998;-80
2022/04/27 01:06:58;;;;;;;7.03;6.32;;;15.60;92.00;;;;;;6341271;22;20336;-79
2022/04/27 01:09:25;;;;;;;6.65;5.95;;;15.60;91.90;;;;;;6369342;22;20002;-79
2022/04/27 01:11:52;;;;;;;6.32;5.72;;;15.50;91.70;;;;;;6369907;22;20006;-79
2022/04/27 01:14:17;;;;;;;6.45;5.38;;;15.60;91.80;;;;;;6369252;22;20331;-79
2022/04/27 01:16:50;;;;;;;5.75;5.00;;;15.40;91.70;;;;;;6369585;22;19994;-79
2022/04/27 01:19:17;;;;;;;5.40;4.80;;;15.40;91.60;;;;;;6341934;22;20033;-79
2022/04/27 01:21:43;;;;;;;5.38;4.55;;;15.50;91.50;;;;;;6369417;22;20008;-79
2022/04/27 01:24:10;;;;;;;4.47;4.07;;;15.50;91.40;;;;;;6369729;22;20002;-79
2022/04/27 01:26:37;;;;;;;4.45;4.05;;;15.50;91.30;;;;;;6341701;22;20007;-78
2022/04/27 01:29:03;;;;;;;5.28;4.35;;;15.50;91.30;;;;;;6370135;22;20006;-79
2022/04/27 01:31:28;;;;;;;7.10;4.88;;;15.50;91.30;;;;;;6369955;22;20832;-79
2022/04/27 01:33:55;;;;;;;5.03;4.53;;;15.50;91.20;;;;;;6370403;22;20846;-79
2022/04/27 01:36:20;;;;;;;5.22;4.32;;;15.50;91.10;;;;;;6341791;22;19998;-79
2022/04/27 01:38:46;;;;;;;4.20;3.80;;;15.40;91.00;;;;;;6369939;22;19994;-79
2022/04/27 01:41:12;;;;;;;2.95;2.60;;;15.40;90.80;;;;;;6369954;22;20021;-80
2022/04/27 01:43:38;;;;;;;2.70;1.92;;;15.20;90.30;;;;;;6341922;22;20013;-79
2022/04/27 01:46:07;;;;;;;4.68;2.30;;;15.10;90.40;;;;;;6369592;22;20030;-78
2022/04/27 01:48:33;;;;;;;1.90;1.50;;;15.10;90.60;;;;;;6369608;22;19998;-79
2022/04/27 01:50:58;;;;;;;3.00;1.65;;;15.10;90.40;;;;;;6369382;22;20010;-79
2022/04/27 01:56:08;;;;;;;1.55;1.40;;;14.90;90.30;;;;;;6370104;22;20083;-80
2022/04/27 01:58:34;;;;;;;1.63;1.15;;;15.00;90.40;;;;;;6370056;22;20339;-80
2022/04/27 02:01:00;;;;;;;1.40;1.30;;;15.00;90.30;;;;;;6341098;22;20050;-79
2022/04/27 02:03:26;;;;;;;2.72;1.30;;;15.00;90.10;;;;;;6369853;22;20005;-79
2022/04/27 02:05:52;;;;;;;1.40;1.10;;;15.00;90.10;;;;;;6369797;22;20002;-79
2022/04/27 02:08:18;;;;;;;1.55;1.10;;;15.10;90.10;;;;;;6341741;22;20370;-79
2022/04/27 02:10:45;;;;;;;1.23;1.13;;;15.10;90.00;;;;;;6368897;22;20089;-79
2022/04/27 02:13:11;;;;;;;1.10;1.00;;;15.10;89.70;;;;;;6341358;22;20009;-80
2022/04/27 02:15:37;;;;;;;1.08;0.98;;;15.10;89.50;;;;;;6369709;22;20005;-80
2022/04/27 02:18:04;;;;;;;0.90;0.90;;;15.10;89.20;;;;;;6341723;22;19998;-77
2022/04/27 02:20:30;;;;;;;0.75;0.70;;;15.00;88.90;;;;;;6369787;22;20100;-77
2022/04/27 02:22:56;;;;;;;1.23;0.85;;;14.90;89.10;;;;;;6368944;22;20036;-78
2022/04/27 02:25:22;;;;;;;1.60;0.90;;;14.90;89.10;;;;;;6369600;22;20420;-78
2022/04/27 02:27:49;;;;;;;2.67;0.90;;;14.90;89.20;;;;;;6370105;22;20009;-78
2022/04/27 02:30:17;;;;;;;1.63;0.90;;;14.90;89.10;;;;;;6368921;22;20007;-78
2022/04/27 02:32:45;;;;;;;1.27;1.00;;;14.90;89.00;;;;;;6368810;22;19994;-77
2022/04/27 02:35:11;;;;;;;1.90;1.02;;;14.90;89.00;;;;;;6368528;22;20001;-77
2022/04/27 02:37:37;;;;;;;1.95;1.05;;;14.90;88.60;;;;;;6341569;22;20057;-78
2022/04/27 02:40:05;;;;;;;1.50;1.08;;;14.90;88.70;;;;;;6369682;22;20444;-78
2022/04/27 02:42:30;;;;;;;1.23;0.90;;;14.90;88.90;;;;;;6368692;22;19999;-78
2022/04/27 02:44:56;;;;;;;1.65;1.00;;;14.90;88.90;;;;;;6369163;22;20005;-77
2022/04/27 02:47:22;;;;;;;1.40;1.10;;;14.90;88.90;;;;;;6369243;22;19994;-77
2022/04/27 02:52:32;;;;;;;1.65;1.30;;;14.80;88.40;;;;;;6369045;22;20009;-79
2022/04/27 02:54:58;;;;;;;1.38;0.95;;;14.80;88.70;;;;;;6341770;22;19998;-77
2022/04/27 02:57:24;;;;;;;1.45;1.10;;;14.80;88.80;;;;;;6368805;22;20443;-76
2022/04/27 02:59:49;;;;;;;1.50;1.20;;;14.80;88.80;;;;;;6368647;22;19994;-77
2022/04/27 03:02:15;;;;;;;1.05;0.98;;;14.80;88.90;;;;;;6368954;22;20316;-77
2022/04/27 03:04:41;;;;;;;1.45;1.17;;;14.70;88.80;;;;;;6341477;22;20002;-77
2022/04/27 03:07:07;;;;;;;1.70;1.30;;;14.70;88.70;;;;;;6369866;22;20005;-77
2022/04/27 03:09:32;;;;;;;1.38;1.10;;;14.70;88.70;;;;;;6371223;22;19994;-77
2022/04/27 03:12:00;;;;;;;1.27;1.17;;;14.70;88.60;;;;;;6370380;22;20519;-78
2022/04/27 03:14:25;;;;;;;2.63;1.52;;;14.70;88.50;;;;;;6371378;22;19998;-78
2022/04/27 03:16:54;;;;;;;1.35;1.25;;;14.60;88.20;;;;;;6371414;22;20496;-78
2022/04/27 03:19:20;;;;;;;1.50;1.30;;;14.60;88.70;;;;;;6371216;22;20002;-78
2022/04/27 03:21:46;;;;;;;1.70;1.30;;;14.60;88.80;;;;;;6343354;22;20006;-78
2022/04/27 03:24:12;;;;;;;2.03;1.65;;;14.60;88.80;;;;;;6371030;22;20037;-78
2022/04/27 03:26:37;;;;;;;1.60;1.40;;;14.60;88.80;;;;;;6371198;22;20458;-79
2022/04/27 03:29:03;;;;;;;1.88;1.70;;;14.70;88.90;;;;;;6371380;22;20033;-78
2022/04/27 03:31:30;;;;;;;1.55;1.45;;;14.70;88.80;;;;;;6342737;22;20030;-77
2022/04/27 03:33:56;;;;;;;2.00;1.65;;;14.70;88.70;;;;;;6342793;22;20469;-77
2022/04/27 03:36:22;;;;;;;2.70;1.80;;;14.70;88.80;;;;;;6370868;22;20061;-78
2022/04/27 03:38:48;;;;;;;1.98;1.77;;;14.70;88.80;;;;;;6371229;22;20395;-77
2022/04/27 03:41:19;;;;;;;3.95;2.25;;;14.60;88.70;;;;;;6370743;22;20344;-77
2022/04/27 03:43:45;;;;;;;1.83;1.60;;;14.60;88.80;;;;;;6370990;22;20069;-78
2022/04/27 03:46:11;;;;;;;2.70;1.77;;;14.60;88.80;;;;;;6370771;22;20301;-78
2022/04/27 03:48:37;;;;;;;4.47;2.55;;;14.60;88.90;;;;;;6371449;22;20091;-78
2022/04/27 03:51:04;;;;;;;5.68;2.47;;;14.40;88.40;;;;;;6370894;22;20423;-78
2022/04/27 03:53:29;;;;;;;3.03;2.60;;;14.20;89.20;;;;;;6371400;22;20433;-78
2022/04/27 03:55:55;;;;;;;2.15;1.90;;;14.00;90.00;;;;;;6371036;22;19994;-78
2022/04/27 03:58:21;;;;;;;3.65;2.53;;;14.00;90.20;;;;;;6370446;22;20417;-77
2022/04/27 04:00:47;;;;;;;3.55;2.72;;;13.90;90.10;;;;;;6370728;22;20002;-77
2022/04/27 04:03:12;;;;;;;2.50;2.25;;;13.90;90.20;;;;;;6370581;22;20002;-78
2022/04/27 04:05:38;;;;;;;3.35;2.78;;;13.70;90.80;;;;;;6370038;22;20006;-78
2022/04/27 04:08:06;;;;;;;4.22;2.78;;;13.70;90.80;;;;;;6369828;22;20044;-79
2022/04/27 04:10:31;;;;;;;4.57;4.03;;;13.60;91.00;;;;;;6342012;22;20313;-79
2022/04/27 04:12:57;;;;;;;5.25;4.05;;;13.50;90.90;;;;;;6370540;22;20005;-79
2022/04/27 04:15:23;;;;;;;7.30;4.78;;;13.30;91.40;;;;;;6369855;22;20424;-79
2022/04/27 04:17:48;;;;;;;3.70;3.40;;;13.20;91.40;;;;;;6370171;22;20351;-78
2022/04/27 04:20:19;;;;;;;5.13;3.45;;;13.30;91.60;;;;;;6369510;22;20010;-78
2022/04/27 04:22:46;;;;;;;3.42;2.95;;;13.30;91.60;;;;;;6370174;22;20050;-78
2022/04/27 04:30:42;;;;;;;4.90;3.95;;;13.50;91.30;;;;;;6368711;22;20014;-77
2022/04/27 04:33:07;;;;;;;5.10;4.60;;;13.40;91.20;;;;;;6369553;22;20003;-77
2022/04/27 04:35:34;;;;;;;3.00;2.70;;;13.20;91.60;;;;;;6368585;22;20030;-77
2022/04/27 04:38:00;;;;;;;5.40;3.42;;;13.20;91.80;;;;;;6369745;22;19987;-77
2022/04/27 04:40:26;;;;;;;4.10;3.38;;;13.30;91.60;;;;;;6368877;22;20018;-78
2022/04/27 04:42:52;;;;;;;5.32;4.78;;;13.20;91.80;;;;;;6369687;22;20314;-76
2022/04/27 04:45:18;;;;;;;4.60;4.20;;;13.30;91.50;;;;;;6370711;22;20006;-83
2022/04/27 04:47:44;;;;;;;4.70;4.15;;;13.10;92.10;;;;;;6343196;22;20006;-82
2022/04/27 04:50:13;;;;;;;5.10;4.10;;;13.10;92.00;;;;;;6342174;22;20434;-82
2022/04/27 04:52:39;;;;;;;4.07;3.67;;;13.10;92.00;;;;;;6370432;22;20311;-82
2022/04/27 04:55:18;;;;;;;4.35;3.40;;;13.00;92.40;;;;;;6342678;22;20086;-82
2022/04/27 04:57:47;;;;;;;5.07;4.57;;;13.10;92.30;;;;;;6342547;22;20002;-81
2022/04/27 05:00:13;;;;;;;6.53;4.35;;;13.10;92.10;;;;;;6340578;22;20086;-80
2022/04/27 05:02:39;;;;;;;5.22;3.45;;;13.10;92.00;;;;;;6340820;22;20002;-76
2022/04/27 05:05:06;;;;;;;3.58;2.90;;;13.30;92.00;;;;;;6341683;22;20328;-76
2022/04/27 05:07:34;;;;;;;3.85;3.22;;;13.50;91.70;;;;;;6369027;22;19999;-76
2022/04/27 05:10:00;;;;;;;3.00;2.78;;;13.60;91.40;;;;;;6368263;22;20006;-76
2022/04/27 05:12:26;;;;;;;3.75;3.45;;;13.70;91.30;;;;;;6366963;22;20006;-76
2022/04/27 05:14:52;;;;;;;5.05;4.57;;;13.70;91.00;;;;;;6368459;22;20006;-76
2022/04/27 05:17:19;;;;;;;4.82;3.85;;;13.60;90.90;;;;;;6369012;22;19994;-78
2022/04/27 05:19:44;;;;;;;4.53;3.90;;;13.70;91.00;;;;;;6369951;22;20025;-78
2022/04/27 05:22:10;;;;;;;4.07;3.35;;;13.70;91.00;;;;;;6370337;22;19998;-78
2022/04/27 05:24:36;;;;;;;4.20;3.80;;;13.70;91.10;;;;;;6368920;22;19998;-78
2022/04/27 05:27:02;;;;;;;3.60;3.30;;;13.60;91.20;;;;;;6369957;22;20006;-78
2022/04/27 05:32:12;;;;;;;3.33;3.03;;;13.70;91.20;;;;;;6369824;22;20415;-75
2022/04/27 05:34:38;;;;;;;3.92;3.53;;;13.70;91.20;;;;;;6342289;22;20033;-75
2022/04/27 05:37:05;;;;;;;4.07;3.70;;;13.70;91.20;;;;;;6369878;22;19994;-76
2022/04/27 05:39:31;;;;;;;4.20;3.80;;;13.70;91.20;;;;;;6369469;22;19998;-75
2022/04/27 05:41:57;;;;;;;14.10;4.72;;;13.70;91.30;;;;;;6341865;22;20010;-75
2022/04/27 05:44:24;;;;;;;3.85;3.40;;;13.70;91.10;;;;;;6370047;22;20057;-74
2022/04/27 05:46:51;;;;;;;5.00;2.90;;;13.80;91.20;;;;;;6370173;22;19998;-75
2022/04/27 05:49:18;;;;;;;3.28;2.97;;;13.90;91.10;;;;;;6370085;22;20002;-75
2022/04/27 05:51:44;;;;;;;4.15;2.95;;;13.80;90.90;;;;;;6369944;22;20305;-77
2022/04/27 05:54:09;;;;;;;3.60;3.30;;;13.90;91.10;;;;;;6370034;22;20001;-78
2022/04/27 05:56:36;;;;;;;3.25;2.92;;;14.00;90.90;;;;;;6370048;22;20047;-78
2022/04/27 05:59:02;;;;;;;2.50;2.30;;;13.90;90.80;;;;;;6341814;22;20006;-77
2022/04/27 06:01:29;;;;;;;3.63;3.00;;;14.10;90.70;;;;;;6369660;22;20006;-83
2022/04/27 06:03:55;;;;;;;3.42;3.13;;;14.20;90.60;;;;;;6369981;22;20074;-77
2022/04/27 06:06:21;;;;;;;3.83;2.40;;;14.20;90.40;;;;;;6341987;22;20487;-77
2022/04/27 06:08:47;;;;;;;2.40;2.20;;;14.30;90.20;;;;;;6369690;22;19998;-76
2022/04/27 06:11:13;;;;;;;3.20;2.90;;;14.40;90.30;;;;;;6342033;22;20006;-77
2022/04/27 06:13:38;;;;;;;3.08;2.35;;;14.40;90.20;;;;;;6370236;22;20007;-77
2022/04/27 06:16:04;;;;;;;2.42;2.20;;;14.50;90.00;;;;;;6369676;22;20069;-77
2022/04/27 06:18:30;;;;;;;3.83;2.75;;;14.60;90.10;;;;;;6369705;22;20022;-78
2022/04/27 06:20:56;;;;;;;2.50;2.28;;;14.60;90.10;;;;;;6369420;22;20074;-77
2022/04/27 06:23:23;;;;;;;4.22;2.70;;;14.70;90.00;;;;;;6341952;22;20455;-77
2022/04/27 06:25:49;;;;;;;3.10;2.80;;;14.80;89.90;;;;;;6370046;22;20003;-77
2022/04/27 06:28:18;;;;;;;3.13;2.30;;;14.80;89.80;;;;;;6369861;22;20078;-76
2022/04/27 06:30:44;;;;;;;4.15;2.60;;;14.80;89.80;;;;;;6359876;22;20029;-77
2022/04/27 06:33:10;;;;;;;3.00;2.50;;;14.90;90.00;;;;;;6368823;22;20484;-77
2022/04/27 06:35:54;;;;;;;3.53;2.70;;;15.00;90.00;;;;;;6365859;22;20002;-77
2022/04/27 06:38:20;;;;;;;5.82;4.07;;;14.90;89.90;;;;;;6341272;22;20048;-77
2022/04/27 06:40:46;;;;;;;3.28;2.60;;;14.80;89.40;;;;;;6369420;22;20428;-77
2022/04/27 06:43:12;;;;;;;3.08;2.65;;;14.90;90.00;;;;;;6372210;22;20007;-77
2022/04/27 06:45:37;;;;;;;3.65;2.40;;;14.90;89.70;;;;;;6371419;22;20002;-77
2022/04/27 06:48:04;;;;;;;2.70;2.25;;;15.00;89.60;;;;;;6371592;22;20006;-77
2022/04/27 06:50:30;;;;;;;2.92;2.60;;;15.10;89.50;;;;;;6370869;22;20006;-76
2022/04/27 06:52:59;;;;;;;3.40;2.58;;;15.00;88.10;;;;;;6371551;22;20366;-75
2022/04/27 06:55:25;;;;;;;3.28;2.15;;;15.10;88.90;;;;;;6343301;22;20005;-75
2022/04/27 06:57:51;;;;;;;3.40;2.55;;;15.10;88.90;;;;;;6342322;22;20081;-75
2022/04/27 07:00:17;;;;;;;3.20;2.50;;;15.10;87.60;;;;;;6371358;22;20082;-75
2022/04/27 07:02:43;;;;;;;4.80;2.50;;;15.00;87.70;;;;;;6370406;22;20013;-76
2022/04/27 07:05:12;;;;;;;3.38;2.20;;;15.00;88.30;;;;;;6371443;22;20501;-76
2022/04/27 07:07:38;;;;;;;9.40;1.83;;;15.00;87.60;;;;;;6371729;22;20077;-76
2022/04/27 07:10:04;;;;;;;2.30;1.95;;;15.10;87.70;;;;;;6343503;22;20465;-77
2022/04/27 07:12:29;;;;;;;2.53;1.83;;;15.20;87.40;;;;;;6370585;22;20002;-76
2022/04/27 07:14:56;;;;;;;3.38;2.08;;;15.30;87.00;;;;;;6371548;22;20305;-76
2022/04/27 07:17:22;;;;;;;3.20;2.90;;;15.40;86.00;;;;;;6343014;22;20128;-76
2022/04/27 07:19:48;;;;;;;3.53;2.92;;;15.30;85.60;;;;;;6371218;22;20014;-77
2022/04/27 07:22:14;;;;;;;5.60;2.42;;;15.30;85.10;;;;;;6371252;22;20002;-77
2022/04/27 07:24:39;;;;;;;2.92;1.83;;;15.30;86.00;;;;;;6371849;22;20043;-77
2022/04/27 07:27:05;;;;;;;2.25;2.03;;;15.40;85.70;;;;;;6371595;22;20003;-78
2022/04/27 07:29:32;;;;;;;2.20;1.85;;;15.50;85.50;;;;;;6343011;22;20010;-77
2022/04/27 07:32:01;;;;;;;2.60;2.00;;;15.60;84.80;;;;;;6371438;22;20082;-76
2022/04/27 07:34:27;;;;;;;3.13;1.63;;;15.70;83.90;;;;;;6371361;22;19994;-77
2022/04/27 07:36:53;;;;;;;2.03;1.67;;;15.80;84.80;;;;;;6370842;22;20002;-78
2022/04/27 07:39:18;;;;;;;1.60;1.50;;;15.90;84.60;;;;;;6370446;22;19998;-77
2022/04/27 07:41:45;;;;;;;1.88;1.60;;;16.00;84.00;;;;;;6371104;22;20011;-77
2022/04/27 07:44:13;;;;;;;2.90;1.95;;;16.10;84.30;;;;;;6371234;22;20002;-77
2022/04/27 07:46:39;;;;;;;4.10;2.17;;;16.20;83.40;;;;;;6343457;22;20420;-77
2022/04/27 07:49:05;;;;;;;2.17;1.70;;;16.30;83.60;;;;;;6342485;22;20009;-77
2022/04/27 07:51:30;;;;;;;1.58;1.30;;;16.40;83.90;;;;;;6369549;22;19999;-77
2022/04/27 07:53:56;;;;;;;1.65;1.40;;;16.40;82.00;;;;;;6370207;22;19998;-77
2022/04/27 07:56:21;;;;;;;1.75;1.30;;;16.50;83.30;;;;;;6370127;22;19994;-77
2022/04/27 07:58:47;;;;;;;1.80;1.23;;;16.60;81.90;;;;;;6370994;22;19998;-77
2022/04/27 08:01:13;;;;;;;1.50;1.00;;;16.60;82.50;;;;;;6370681;22;19998;-77
2022/04/27 08:03:38;;;;;;;3.60;1.50;;;16.70;82.40;;;;;;6370634;22;20070;-77
2022/04/27 08:06:04;;;;;;;2.42;1.35;;;16.70;80.30;;;;;;6370801;22;20459;-77
2022/04/27 08:08:34;;;;;;;3.45;1.60;;;16.80;80.70;;;;;;6342590;22;20002;-77
2022/04/27 08:11:00;;;;;;;1.98;1.70;;;16.70;81.70;;;;;;6371009;22;20434;-77
2022/04/27 08:13:25;;;;;;;2.80;2.00;;;16.90;82.10;;;;;;6370825;22;20030;-76
2022/04/27 08:15:51;;;;;;;1.70;1.50;;;16.90;80.20;;;;;;6371046;22;19994;-77
2022/04/27 08:18:17;;;;;;;2.50;1.58;;;17.00;81.60;;;;;;6342774;22;19994;-77
2022/04/27 08:23:32;;;;;;;2.20;1.85;;;17.10;81.40;;;;;;6370781;22;20059;-78
2022/04/27 08:26:03;;;;;;;1.60;1.50;;;17.20;80.70;;;;;;6370669;22;20002;-78
2022/04/27 08:28:29;;;;;;;1.48;1.38;;;17.30;80.80;;;;;;6370305;22;20002;-77
2022/04/27 08:30:55;;;;;;;1.92;1.23;;;17.40;81.20;;;;;;6370221;22;20425;-77
2022/04/27 08:33:22;;;;;;;5.10;1.42;;;17.50;81.30;;;;;;6370378;22;20420;-77
2022/04/27 08:35:48;;;;;;;3.88;1.98;;;17.60;81.10;;;;;;6370431;22;20316;-77
2022/04/27 08:38:14;;;;;;;5.88;2.60;;;17.70;77.00;;;;;;6370712;22;19998;-78
2022/04/27 08:40:44;;;;;;;3.08;2.05;;;17.40;77.00;;;;;;6369609;22;20030;-77
2022/04/27 08:43:10;;;;;;;;;;;17.30;76.70;;;;;;6343132;22;20029;-77
2022/04/27 08:45:37;;;;;;;1.90;1.33;;;17.30;78.30;;;;;;6370472;22;20309;-77
2022/04/27 08:48:04;;;;;;;2.20;1.70;;;17.30;78.70;;;;;;6370884;22;20036;-77
2022/04/27 08:50:30;;;;;;;1.80;1.60;;;17.20;78.00;;;;;;6370619;22;20436;-77
2022/04/27 08:52:56;;;;;;;1.52;1.30;;;17.50;79.70;;;;;;6342871;22;20006;-76
2022/04/27 08:55:23;;;;;;;1.70;1.25;;;17.70;80.10;;;;;;6370474;22;19994;-77
2022/04/27 08:57:48;;;;;;;4.22;2.67;;;17.90;80.00;;;;;;6370570;22;20014;-77
2022/04/27 09:00:15;;;;;;;1.50;1.40;;;18.00;76.80;;;;;;6370073;22;19995;-78
2022/04/27 09:02:42;;;;;;;3.13;1.73;;;17.90;77.30;;;;;;6370142;22;20077;-78
2022/04/27 09:05:07;;;;;;;1.60;1.30;;;18.00;77.90;;;;;;6370576;22;20001;-78
2022/04/27 09:07:44;;;;;;;2.05;1.30;;;18.10;78.10;;;;;;6370181;22;19998;-78
2022/04/27 09:10:15;;;;;;;1.60;1.25;;;18.20;78.20;;;;;;6370189;22;20362;-78
2022/04/27 09:12:58;;;;;;;3.22;1.33;;;18.40;78.10;;;;;;6370112;22;20024;-76
2022/04/27 09:15:26;;;;;;;6.18;1.35;;;18.50;76.10;;;;;;6369966;22;19998;-77
2022/04/27 09:20:47;;;;;;;2.05;1.27;;;18.70;78.20;;;;;;6370376;22;20016;-77
2022/04/27 09:23:32;;;;;;;1.30;1.20;;;18.70;77.70;;;;;;6370430;22;20074;-77
2022/04/27 09:26:13;;;;;;;1.65;1.38;;;18.80;74.30;;;;;;6370134;22;20002;-76
2022/04/27 09:28:38;;;;;;;2.58;1.27;;;18.80;76.00;;;;;;6370018;22;19999;-78
2022/04/27 09:31:04;;;;;;;1.15;1.02;;;19.00;76.50;;;;;;6369322;22;20010;-78
2022/04/27 09:33:34;;;;;;;1.92;1.60;;;19.20;74.10;;;;;;6370060;22;20350;-77
2022/04/27 09:36:00;;;;;;;;;;;19.10;72.80;;;;;;6370839;22;19998;-77
2022/04/27 09:38:26;;;;;;;1.83;0.95;;;19.30;74.90;;;;;;6369856;22;19909;-77
2022/04/27 09:40:58;;;;;;;1.00;0.70;;;19.50;75.00;;;;;;6362776;22;20018;-77
2022/04/27 09:43:46;;;;;;;0.82;0.60;;;19.70;74.70;;;;;;6341971;22;20432;-78
2022/04/27 09:46:25;;;;;;;1.77;0.60;;;20.00;73.70;;;;;;6368781;22;20051;-78
2022/04/27 09:49:02;;;;;;;0.85;0.65;;;20.10;71.50;;;;;;6369207;22;19998;-78
2022/04/27 09:51:28;;;;;;;1.45;0.90;;;20.20;69.60;;;;;;6341418;22;20014;-78
2022/04/27 09:53:58;;;;;;;1.50;0.60;;;20.40;70.70;;;;;;6369877;22;19995;-77
2022/04/27 09:56:28;;;;;;;0.60;0.60;;;20.50;70.00;;;;;;6369596;22;20005;-78
2022/04/27 09:58:56;;;;;;;1.77;0.60;;;20.60;69.90;;;;;;6369901;22;20428;-78
2022/04/27 10:01:22;;;;;;;2.22;0.90;;;20.70;70.10;;;;;;6369573;22;20010;-78
2022/04/27 10:03:49;;;;;;;1.85;0.90;;;20.80;69.70;;;;;;6369973;22;19999;-78
2022/04/27 10:06:15;;;;;;;0.95;0.70;;;20.90;69.30;;;;;;6369753;22;20002;-78
2022/04/27 10:08:42;;;;;;;3.25;1.08;;;21.00;68.20;;;;;;6368389;22;20009;-78
2022/04/27 10:11:11;;;;;;;1.58;0.80;;;21.10;67.50;;;;;;6366474;22;20387;-79
2022/04/27 10:13:38;;;;;;;0.73;0.60;;;21.20;68.80;;;;;;6369771;22;19999;-79
2022/04/27 10:16:04;;;;;;;2.28;0.73;;;21.30;67.60;;;;;;6370949;22;20054;-79
2022/04/27 10:18:31;;;;;;;1.42;0.98;;;21.40;67.00;;;;;;6371868;22;20437;-76
2022/04/27 10:20:56;;;;;;;0.68;0.50;;;21.40;67.70;;;;;;6368160;22;20022;-77
2022/04/27 10:23:48;;;;;;;0.93;0.82;;;21.50;67.50;;;;;;6343367;22;20006;-76
2022/04/27 10:26:27;;;;;;;0.47;0.47;;;21.60;65.00;;;;;;6371340;22;20420;-78
2022/04/27 10:28:59;;;;;;;0.73;0.40;;;21.70;66.50;;;;;;6371860;22;20073;-79
2022/04/27 10:31:40;;;;;;;0.68;0.43;;;21.90;67.50;;;;;;6371354;22;20320;-79
2022/04/27 10:34:23;;;;;;;0.43;0.43;;;22.00;66.40;;;;;;6343879;22;19994;-79
2022/04/27 10:36:50;;;;;;;0.40;0.40;;;22.20;64.40;;;;;;6371662;22;20043;-80
2022/04/27 10:39:20;;;;;;;0.50;0.50;;;22.30;63.90;;;;;;6371171;22;20031;-79
2022/04/27 10:41:52;;;;;;;0.30;0.30;;;22.40;61.10;;;;;;6371578;22;20017;-80
2022/04/27 10:44:18;;;;;;;2.17;0.40;;;22.50;63.20;;;;;;6341287;22;20309;-80
2022/04/27 10:46:44;;;;;;;0.57;0.40;;;22.60;63.20;;;;;;6371016;22;20005;-80
2022/04/27 10:49:28;;;;;;;1.60;0.60;;;22.70;63.30;;;;;;6372547;22;20073;-79
2022/04/27 10:52:05;;;;;;;0.45;0.40;;;22.80;63.30;;;;;;6371118;22;20048;-79
2022/04/27 10:54:39;;;;;;;1.20;0.60;;;23.00;62.80;;;;;;6371337;22;20070;-79
2022/04/27 10:57:17;;;;;;;0.57;0.52;;;23.10;62.10;;;;;;6371357;22;20009;-78
2022/04/27 10:59:51;;;;;;;1.05;0.60;;;23.20;62.50;;;;;;6371545;22;20002;-78
2022/04/27 11:02:37;;;;;;;0.50;0.35;;;23.30;61.30;;;;;;6370921;22;19998;-78
2022/04/27 11:05:12;;;;;;;0.95;0.45;;;23.50;60.80;;;;;;6371520;22;20047;-78
2022/04/27 11:07:58;;;;;;;0.35;0.35;;;23.50;59.80;;;;;;6370756;22;20009;-78
2022/04/27 11:10:25;;;;;;;0.20;0.20;;;23.70;60.10;;;;;;6369161;22;20002;-78
2022/04/27 11:12:52;;;;;;;0.45;0.30;;;23.70;58.80;;;;;;6369741;22;20070;-78
2022/04/27 11:15:22;;;;;;;1.58;0.60;;;23.80;58.60;;;;;;6370722;22;20380;-78
2022/04/27 11:17:56;;;;;;;0.30;0.30;;;23.90;58.20;;;;;;6369732;22;20010;-77
2022/04/27 11:20:29;;;;;;;0.45;0.22;;;24.00;58.40;;;;;;6369889;22;20300;-77
2022/04/27 11:22:56;;;;;;;0.60;0.40;;;24.10;57.20;;;;;;6370539;22;20128;-77
2022/04/27 11:25:23;;;;;;;0.47;0.38;;;24.10;53.80;;;;;;6369821;22;20001;-77
2022/04/27 11:27:49;;;;;;;0.55;0.40;;;24.20;56.30;;;;;;6369958;22;20078;-77
2022/04/27 11:30:16;;;;;;;0.25;0.25;;;24.50;56.00;;;;;;6370087;22;20033;-78
2022/04/27 11:32:45;;;;;;;1.08;0.30;;;25.00;54.00;;;;;;6370262;22;20003;-77
2022/04/27 11:35:10;;;;;;;0.55;0.30;;;25.50;49.50;;;;;;6370349;22;20005;-77
2022/04/27 11:37:38;;;;;;;0.63;0.43;;;26.10;50.70;;;;;;6370602;22;19998;-77
2022/04/27 11:40:16;;;;;;;0.73;0.30;;;26.70;49.60;;;;;;6370148;22;20014;-77
2022/04/27 11:42:46;;;;;;;0.30;0.30;;;27.30;47.20;;;;;;6369156;22;20062;-78
2022/04/27 11:45:17;;;;;;;0.57;0.50;;;27.90;46.80;;;;;;6369717;22;19994;-78
2022/04/27 11:47:42;;;;;;;0.77;0.50;;;28.40;45.00;;;;;;6367860;22;19998;-79
2022/04/27 11:50:08;;;;;;;1.55;0.60;;;28.80;44.30;;;;;;6369981;22;19999;-81
2022/04/27 11:52:37;;;;;;;0.60;0.30;;;29.10;44.90;;;;;;6340629;22;20025;-79
2022/04/27 11:55:15;;;;;;;1.15;0.60;;;29.40;43.70;;;;;;6369576;22;20294;-79
2022/04/27 11:57:43;;;;;;;0.70;0.40;;;29.60;43.00;;;;;;6370504;22;20025;-78
2022/04/27 12:00:09;;;;;;;1.55;0.30;;;29.90;43.10;;;;;;6369408;22;20002;-79
2022/04/27 12:02:35;;;;;;;0.95;0.40;;;30.10;40.90;;;;;;6369064;22;19995;-78
2022/04/27 12:05:02;;;;;;;1.25;0.40;;;30.20;40.60;;;;;;6369692;22;19999;-79
2022/04/27 12:07:35;;;;;;;0.30;0.30;;;30.30;40.20;;;;;;6370129;22;20431;-80
2022/04/27 12:10:02;;;;;;;0.60;0.45;;;30.40;39.80;;;;;;6370357;22;19998;-80
2022/04/27 12:12:31;;;;;;;0.40;0.40;;;30.50;40.30;;;;;;6342313;22;20016;-80
2022/04/27 12:15:03;;;;;;;0.85;0.52;;;30.60;38.70;;;;;;6369967;22;20063;-81
2022/04/27 12:17:58;;;;;;;2.42;1.20;;;30.70;38.50;;;;;;6370467;22;20353;-80
2022/04/27 12:20:41;;;;;;;1.25;0.77;;;30.80;38.00;;;;;;6355906;22;20009;-81
2022/04/27 12:23:10;;;;;;;1.40;0.80;;;30.90;38.30;;;;;;6370275;22;20478;-80
2022/04/27 12:25:55;;;;;;;2.20;0.73;;;31.20;37.00;;;;;;6342546;22;20321;-80
2022/04/27 12:28:23;;;;;;;232.20;210.57;;;31.40;35.70;;;;;;6370997;22;20001;-79
2022/04/27 12:30:56;;;;;;;7.90;7.18;;;31.70;35.40;;;;;;6367026;22;20010;-80
2022/04/27 12:33:24;;;;;;;1.15;1.02;;;31.90;34.80;;;;;;6369923;22;19995;-80
2022/04/27 12:39:04;;;;;;;1.10;0.52;;;32.40;33.80;;;;;;6370069;22;20489;-80
2022/04/27 12:41:29;;;;;;;1.08;0.50;;;32.60;32.90;;;;;;6369390;22;20428;-80
2022/04/27 12:44:21;;;;;;;1.27;0.63;;;32.80;31.90;;;;;;6370397;22;20026;-81
2022/04/27 12:47:08;;;;;;;1.20;0.70;;;32.90;32.20;;;;;;6369673;22;20006;-80
2022/04/27 12:49:34;;;;;;;2.15;1.05;;;33.00;31.00;;;;;;6370392;22;19998;-80
2022/04/27 12:52:34;;;;;;;1.88;1.00;;;33.10;30.90;;;;;;6369904;22;20013;-80
2022/04/27 12:55:04;;;;;;;1.52;0.80;;;33.20;30.60;;;;;;6342473;22;20531;-80
2022/04/27 12:57:45;;;;;;;1.55;0.88;;;33.40;30.80;;;;;;6369468;22;19999;-80
2022/04/27 13:00:11;;;;;;;0.98;0.50;;;33.60;31.00;;;;;;6369990;22;19994;-80
2022/04/27 13:02:37;;;;;;;0.50;0.50;;;33.70;29.40;;;;;;6341744;22;20009;-81
2022/04/27 13:05:05;;;;;;;1.02;0.90;;;33.70;27.80;;;;;;6369985;22;20010;-80
2022/04/27 13:07:30;;;;;;;2.70;1.05;;;33.80;28.60;;;;;;6369702;22;20071;-80
2022/04/27 13:12:40;;;;;;;0.85;0.80;;;33.90;29.50;;;;;;6369803;22;20018;-82
2022/04/27 13:15:07;;;;;;;1.48;1.00;;;34.00;29.30;;;;;;6370408;22;20002;-81
2022/04/27 13:17:33;;;;;;;6.13;0.93;;;33.90;28.70;;;;;;6341926;22;20002;-81